Time;durP1;ratioP1;P1;durP2;ratioP2;P2;SDS_P1;SDS_P2;PMS_P1;PMS_P2;Temp;Humidity;BMP_temperature;BMP_pressure;BME280_temperature;BME280_humidity;BME280_pressure;Samples;Min_cycle;Max_cycle;Signal;HPM_P1;HPM_P2
2022/08/28 00:01:11;;;;;;;2.17;1.80;;;15.40;99.90;;;;;;5013434;28;20181;-70
2022/08/28 00:03:37;;;;;;;0.97;0.93;;;15.60;99.90;;;;;;5013834;28;20226;-70
2022/08/28 00:06:03;;;;;;;0.70;0.70;;;15.60;99.90;;;;;;5013346;28;20476;-70
2022/08/28 00:08:30;;;;;;;1.40;1.30;;;15.60;99.90;;;;;;5013519;28;20451;-70
2022/08/28 00:10:57;;;;;;;2.10;2.00;;;15.60;99.90;;;;;;5013568;28;20822;-70
2022/08/28 00:13:24;;;;;;;1.10;1.00;;;15.50;99.90;;;;;;5013722;28;20409;-69
2022/08/28 00:15:56;;;;;;;2.07;0.90;;;15.50;99.90;;;;;;5013357;28;20461;-69
2022/08/28 00:18:23;;;;;;;1.57;1.47;;;15.50;99.90;;;;;;5013516;28;20406;-70
2022/08/28 00:20:50;;;;;;;1.17;0.93;;;15.40;99.90;;;;;;5013441;28;20454;-70
2022/08/28 00:23:16;;;;;;;1.37;1.30;;;15.40;99.90;;;;;;5013525;28;20441;-69
2022/08/28 00:25:42;;;;;;;1.47;1.10;;;15.30;99.90;;;;;;5013300;28;20438;-69
2022/08/28 00:28:10;;;;;;;2.20;2.00;;;15.30;99.90;;;;;;5013266;28;20819;-70
2022/08/28 00:30:40;;;;;;;3.53;1.40;;;15.30;99.90;;;;;;5013233;28;20402;-70
2022/08/28 00:33:17;;;;;;;1.27;1.27;;;15.30;99.90;;;;;;5013334;28;20543;-69
2022/08/28 00:35:43;;;;;;;1.00;0.97;;;15.30;99.90;;;;;;5013484;28;20467;-69
2022/08/28 00:38:10;;;;;;;2.03;1.93;;;15.30;99.90;;;;;;5013265;28;20453;-70
2022/08/28 00:40:37;;;;;;;3.03;2.40;;;15.40;99.90;;;;;;5014215;28;20408;-69
2022/08/28 00:43:04;;;;;;;2.20;1.93;;;15.40;99.90;;;;;;5017087;28;20898;-70
2022/08/28 00:45:32;;;;;;;1.17;1.17;;;15.40;99.90;;;;;;5016838;28;20430;-69
2022/08/28 00:47:58;;;;;;;1.63;1.17;;;15.30;99.90;;;;;;5016996;28;20492;-69
2022/08/28 00:50:27;;;;;;;2.47;1.77;;;15.30;99.90;;;;;;5016632;28;20420;-70
2022/08/28 00:52:58;;;;;;;0.93;0.93;;;15.30;99.90;;;;;;5016845;28;20399;-70
2022/08/28 00:55:27;;;;;;;1.93;1.83;;;15.30;99.90;;;;;;5016891;28;20427;-69
2022/08/28 00:57:57;;;;;;;2.20;1.90;;;15.40;99.90;;;;;;5016834;28;20415;-69
2022/08/28 01:00:29;;;;;;;1.47;1.37;;;15.30;99.90;;;;;;5016467;28;20403;-70
2022/08/28 01:02:55;;;;;;;1.63;1.17;;;15.30;99.90;;;;;;5016695;28;20433;-70
2022/08/28 01:05:21;;;;;;;2.00;1.53;;;15.30;99.90;;;;;;5016536;28;20430;-69
2022/08/28 01:07:47;;;;;;;1.40;1.40;;;15.30;99.90;;;;;;5016426;28;20723;-69
2022/08/28 01:10:17;;;;;;;2.07;1.80;;;15.30;99.90;;;;;;5016373;28;20486;-70
2022/08/28 01:12:44;;;;;;;2.93;1.83;;;15.30;99.90;;;;;;5016544;28;20471;-70
2022/08/28 01:15:15;;;;;;;2.27;2.17;;;15.30;99.90;;;;;;5016137;28;20942;-69
2022/08/28 01:17:46;;;;;;;1.63;1.53;;;15.20;99.90;;;;;;5016339;28;20889;-70
2022/08/28 01:20:16;;;;;;;0.87;0.80;;;15.20;99.90;;;;;;5016191;28;20408;-70
2022/08/28 01:23:16;;;;;;;0.80;0.80;;;15.10;99.90;;;;;;5016104;28;20415;-70
2022/08/28 01:25:42;;;;;;;1.50;1.40;;;15.20;99.90;;;;;;5014711;28;20434;-70
2022/08/28 01:28:11;;;;;;;1.57;1.53;;;15.10;99.90;;;;;;5015828;28;20943;-70
2022/08/28 01:30:40;;;;;;;2.00;1.53;;;15.20;99.90;;;;;;5015803;28;20179;-69
2022/08/28 01:33:06;;;;;;;2.43;2.00;;;15.10;99.90;;;;;;5015850;28;20843;-69
2022/08/28 01:35:36;;;;;;;3.23;2.30;;;15.20;99.90;;;;;;5015672;28;20517;-69
2022/08/28 01:38:03;;;;;;;0.80;0.80;;;15.20;99.90;;;;;;5016137;28;20173;-69
2022/08/28 01:40:35;;;;;;;1.53;0.90;;;15.30;99.90;;;;;;5015675;28;20409;-69
2022/08/28 01:43:19;;;;;;;1.77;1.63;;;15.20;99.90;;;;;;5016041;28;20458;-70
2022/08/28 01:45:51;;;;;;;0.70;0.70;;;15.30;99.90;;;;;;5015894;28;20426;-69
2022/08/28 01:48:17;;;;;;;2.20;2.07;;;15.20;99.90;;;;;;5015733;28;20464;-68
2022/08/28 01:50:44;;;;;;;3.43;2.30;;;15.20;99.90;;;;;;5015454;28;20488;-71
2022/08/28 01:53:18;;;;;;;1.03;0.90;;;15.30;99.90;;;;;;5015215;28;20402;-69
2022/08/28 01:55:44;;;;;;;2.40;1.70;;;15.30;99.90;;;;;;5015669;28;20418;-69
2022/08/28 01:58:11;;;;;;;2.50;2.10;;;15.30;99.90;;;;;;5015971;28;20414;-70
2022/08/28 02:00:37;;;;;;;2.33;2.23;;;15.30;99.90;;;;;;5015342;28;20435;-69
2022/08/28 02:03:03;;;;;;;1.27;1.27;;;15.40;99.90;;;;;;5015794;28;20429;-69
2022/08/28 02:05:31;;;;;;;1.97;1.87;;;15.30;99.90;;;;;;5015429;28;20460;-69
2022/08/28 02:07:58;;;;;;;1.93;1.33;;;15.30;99.90;;;;;;5015262;28;20481;-69
2022/08/28 02:10:26;;;;;;;2.93;1.73;;;15.30;99.90;;;;;;5015262;28;20850;-69
2022/08/28 02:12:54;;;;;;;1.80;1.63;;;15.30;99.90;;;;;;5015222;28;20413;-69
2022/08/28 02:15:21;;;;;;;2.00;1.83;;;15.30;99.90;;;;;;5015063;28;20442;-70
2022/08/28 02:17:47;;;;;;;4.50;2.67;;;15.30;99.90;;;;;;5015143;28;20454;-70
2022/08/28 02:20:13;;;;;;;2.77;1.67;;;15.20;99.90;;;;;;5015030;28;20451;-69
2022/08/28 02:22:39;;;;;;;1.43;1.33;;;15.20;99.90;;;;;;5015235;28;20429;-69
2022/08/28 02:25:06;;;;;;;2.47;1.87;;;15.20;99.90;;;;;;5015118;28;20422;-70
2022/08/28 02:27:32;;;;;;;1.03;0.87;;;15.10;99.90;;;;;;5015347;28;20450;-69
2022/08/28 02:29:58;;;;;;;2.20;2.10;;;15.10;99.90;;;;;;5014794;28;20906;-69
2022/08/28 02:32:24;;;;;;;1.47;1.37;;;15.20;99.90;;;;;;5015133;28;20225;-70
2022/08/28 02:34:52;;;;;;;1.10;1.10;;;15.20;99.90;;;;;;5014904;28;20253;-70
2022/08/28 02:37:19;;;;;;;1.30;1.20;;;15.20;99.90;;;;;;5014825;28;20899;-70
2022/08/28 02:39:45;;;;;;;3.10;1.87;;;15.20;99.90;;;;;;5014630;28;20414;-69
2022/08/28 02:42:11;;;;;;;2.10;2.00;;;15.20;99.90;;;;;;5014768;28;20409;-70
2022/08/28 02:44:37;;;;;;;1.10;1.10;;;15.30;99.90;;;;;;5014927;28;20407;-70
2022/08/28 02:47:03;;;;;;;2.80;2.60;;;15.30;99.90;;;;;;5014565;28;20199;-69
2022/08/28 02:49:30;;;;;;;3.13;1.47;;;15.40;99.90;;;;;;5014746;28;20398;-70
2022/08/28 02:51:56;;;;;;;1.50;1.33;;;15.30;99.90;;;;;;5014626;28;20400;-69
2022/08/28 02:54:23;;;;;;;4.00;2.30;;;15.40;99.90;;;;;;5014725;28;20925;-69
2022/08/28 02:56:48;;;;;;;1.80;1.70;;;15.30;99.90;;;;;;5014424;28;20435;-70
2022/08/28 02:59:14;;;;;;;1.93;1.83;;;15.40;99.90;;;;;;5014530;28;20401;-70
2022/08/28 03:01:40;;;;;;;2.43;2.23;;;15.30;99.90;;;;;;5014349;28;20659;-69
2022/08/28 03:04:05;;;;;;;1.50;1.23;;;15.20;99.90;;;;;;5013650;28;20246;-70
2022/08/28 03:06:32;;;;;;;0.90;0.73;;;15.20;99.90;;;;;;5014157;28;20197;-69
2022/08/28 03:08:58;;;;;;;3.10;1.90;;;15.20;99.90;;;;;;5014255;28;20172;-69
2022/08/28 03:11:24;;;;;;;2.63;2.13;;;15.20;99.90;;;;;;5014083;28;20398;-69
2022/08/28 03:13:50;;;;;;;1.73;1.63;;;15.30;99.90;;;;;;5014274;28;20514;-70
2022/08/28 03:16:16;;;;;;;5.33;2.50;;;15.30;99.90;;;;;;5013972;28;20954;-69
2022/08/28 03:18:41;;;;;;;2.50;1.27;;;15.20;99.90;;;;;;5014378;28;20263;-70
2022/08/28 03:21:08;;;;;;;1.63;1.30;;;15.20;99.90;;;;;;5013933;28;20402;-70
2022/08/28 03:23:34;;;;;;;1.10;1.10;;;15.10;99.90;;;;;;5014232;28;20214;-69
2022/08/28 03:26:14;;;;;;;1.83;1.73;;;15.10;99.90;;;;;;5014115;28;20922;-70
2022/08/28 03:28:43;;;;;;;2.80;0.90;;;15.00;99.90;;;;;;5014177;28;20949;-69
2022/08/28 03:31:12;;;;;;;1.73;1.50;;;15.00;99.90;;;;;;5013709;28;20408;-69
2022/08/28 03:33:40;;;;;;;2.03;1.83;;;15.10;99.90;;;;;;5014177;28;20437;-69
2022/08/28 03:36:06;;;;;;;2.43;2.23;;;15.10;99.90;;;;;;5014025;28;20425;-70
2022/08/28 03:38:32;;;;;;;4.40;3.43;;;15.20;99.90;;;;;;5013874;28;20822;-68
2022/08/28 03:40:58;;;;;;;9.60;3.40;;;15.30;99.90;;;;;;5013640;28;20407;-69
2022/08/28 03:43:26;;;;;;;2.33;2.13;;;15.30;99.90;;;;;;5013909;28;20406;-70
2022/08/28 03:46:01;;;;;;;1.83;1.73;;;15.20;99.90;;;;;;5013877;28;20625;-70
2022/08/28 03:48:30;;;;;;;2.63;2.33;;;15.10;99.90;;;;;;5012423;28;20505;-69
2022/08/28 03:50:57;;;;;;;2.63;2.43;;;15.20;99.90;;;;;;5013569;28;20398;-69
2022/08/28 03:53:25;;;;;;;3.73;3.40;;;15.10;99.90;;;;;;5013874;28;20450;-70
2022/08/28 03:55:51;;;;;;;1.63;1.07;;;15.20;99.90;;;;;;5013721;28;20766;-69
2022/08/28 03:58:16;;;;;;;6.13;3.50;;;15.20;99.90;;;;;;5013796;28;20415;-70
2022/08/28 04:00:43;;;;;;;3.90;3.27;;;15.20;99.90;;;;;;5013596;28;20414;-69
2022/08/28 04:03:11;;;;;;;3.30;3.10;;;15.20;99.90;;;;;;5013786;28;20178;-69
2022/08/28 04:05:38;;;;;;;1.67;1.57;;;15.20;99.90;;;;;;5013563;28;20426;-70
2022/08/28 04:08:04;;;;;;;2.20;2.10;;;15.10;99.90;;;;;;5013571;28;20446;-71
2022/08/28 04:10:31;;;;;;;1.73;0.73;;;15.10;99.90;;;;;;5013383;28;20410;-70
2022/08/28 04:12:59;;;;;;;0.80;0.80;;;15.20;99.90;;;;;;5013689;28;20974;-70
2022/08/28 04:15:25;;;;;;;1.70;1.33;;;15.50;99.90;;;;;;5012713;28;20450;-70
2022/08/28 04:17:51;;;;;;;2.77;2.33;;;16.20;99.90;;;;;;5017646;28;20416;-70
2022/08/28 04:20:19;;;;;;;1.53;1.30;;;16.80;99.90;;;;;;5017094;28;20441;-70
2022/08/28 04:22:46;;;;;;;1.80;1.23;;;17.20;99.90;;;;;;5016489;28;20438;-69
2022/08/28 04:25:12;;;;;;;1.70;1.53;;;17.60;99.90;;;;;;5017454;28;20434;-68
2022/08/28 04:27:38;;;;;;;2.50;2.10;;;18.00;99.90;;;;;;5016033;28;20541;-70
2022/08/28 04:30:05;;;;;;;2.63;1.90;;;18.40;99.90;;;;;;5017585;28;20434;-70
2022/08/28 04:32:33;;;;;;;3.30;2.87;;;18.70;99.90;;;;;;5017460;28;20754;-69
2022/08/28 04:34:58;;;;;;;2.37;2.17;;;18.90;99.90;;;;;;5016878;28;20415;-69
2022/08/28 04:37:25;;;;;;;2.60;2.40;;;18.70;99.90;;;;;;5017590;28;20460;-68
2022/08/28 04:39:51;;;;;;;2.30;1.73;;;18.20;99.60;;;;;;5017291;28;20219;-70
2022/08/28 04:42:16;;;;;;;3.73;1.83;;;17.80;99.90;;;;;;5017449;28;20410;-70
2022/08/28 04:44:42;;;;;;;1.83;1.73;;;17.30;99.90;;;;;;5017494;28;20198;-70
2022/08/28 04:47:08;;;;;;;2.00;1.67;;;17.00;99.90;;;;;;5017144;28;20652;-70
2022/08/28 04:49:34;;;;;;;3.33;2.63;;;16.70;99.90;;;;;;5017035;28;20160;-69
2022/08/28 04:52:00;;;;;;;2.83;1.87;;;16.50;99.90;;;;;;5017118;28;20174;-68
2022/08/28 04:54:28;;;;;;;2.07;1.97;;;16.30;99.90;;;;;;5017218;28;20905;-69
2022/08/28 04:56:54;;;;;;;3.03;1.67;;;16.20;99.90;;;;;;5017295;28;20433;-69
2022/08/28 04:59:19;;;;;;;1.00;1.00;;;16.10;99.90;;;;;;5017330;28;20406;-69
2022/08/28 05:01:45;;;;;;;2.50;1.60;;;16.00;99.90;;;;;;5016644;28;20493;-70
2022/08/28 05:04:11;;;;;;;1.27;1.17;;;16.00;99.90;;;;;;5016593;28;20182;-68
2022/08/28 05:06:44;;;;;;;6.00;2.33;;;15.80;99.90;;;;;;5016545;28;20590;-68
2022/08/28 05:09:12;;;;;;;2.97;1.70;;;15.80;99.90;;;;;;5016138;28;20406;-70
2022/08/28 05:11:38;;;;;;;1.73;1.33;;;15.70;99.90;;;;;;5016412;28;20401;-70
2022/08/28 05:14:10;;;;;;;2.27;2.07;;;15.80;99.90;;;;;;5016690;28;20920;-69
2022/08/28 05:16:42;;;;;;;5.90;3.13;;;15.90;99.90;;;;;;5016497;28;20541;-70
2022/08/28 05:19:09;;;;;;;3.73;3.40;;;15.70;99.90;;;;;;5016654;28;20414;-68
2022/08/28 05:21:35;;;;;;;3.37;2.50;;;15.70;99.90;;;;;;5016452;28;20741;-69
2022/08/28 05:24:01;;;;;;;2.20;1.83;;;15.70;99.90;;;;;;5016942;28;20402;-70
2022/08/28 05:26:27;;;;;;;1.60;1.50;;;15.80;99.90;;;;;;5015796;28;20933;-68
2022/08/28 05:28:54;;;;;;;2.60;2.50;;;15.80;99.90;;;;;;5015684;28;20494;-69
2022/08/28 05:31:21;;;;;;;4.40;2.37;;;15.80;99.90;;;;;;5016178;28;20429;-68
2022/08/28 05:33:48;;;;;;;3.83;2.43;;;15.90;99.90;;;;;;5016426;28;20402;-69
2022/08/28 05:36:15;;;;;;;2.70;1.63;;;16.10;99.90;;;;;;5016433;28;20520;-70
2022/08/28 05:38:41;;;;;;;2.97;1.90;;;16.10;99.90;;;;;;5016553;28;20409;-70
2022/08/28 05:41:07;;;;;;;2.43;2.17;;;16.20;99.90;;;;;;5015759;28;20953;-69
2022/08/28 05:43:34;;;;;;;1.80;1.70;;;16.20;99.90;;;;;;5016002;28;20433;-69
2022/08/28 05:46:09;;;;;;;3.70;2.30;;;16.40;99.90;;;;;;5015446;28;20477;-69
2022/08/28 05:48:35;;;;;;;3.90;3.40;;;16.40;99.90;;;;;;5016176;28;20454;-70
2022/08/28 05:51:10;;;;;;;3.37;2.13;;;16.40;99.90;;;;;;5015634;28;20403;-69
2022/08/28 05:53:41;;;;;;;1.87;1.60;;;16.40;99.90;;;;;;5014409;28;20417;-69
2022/08/28 05:56:09;;;;;;;1.43;1.23;;;16.60;99.90;;;;;;5016013;28;20444;-70
2022/08/28 05:58:36;;;;;;;3.17;2.80;;;16.70;99.90;;;;;;5015911;28;20441;-69
2022/08/28 06:01:19;;;;;;;1.17;1.17;;;16.90;99.90;;;;;;5015486;28;20413;-69
2022/08/28 06:03:53;;;;;;;2.93;2.70;;;16.90;99.90;;;;;;5015261;28;20910;-69
2022/08/28 06:06:20;;;;;;;1.03;1.03;;;17.00;99.90;;;;;;5015707;28;20436;-69
2022/08/28 06:08:45;;;;;;;2.30;2.13;;;17.10;99.90;;;;;;5015691;28;20505;-68
2022/08/28 06:11:11;;;;;;;4.93;2.20;;;17.20;99.90;;;;;;5015510;28;20406;-69
2022/08/28 06:13:37;;;;;;;2.10;2.00;;;17.20;99.90;;;;;;5015780;28;20168;-71
2022/08/28 06:16:04;;;;;;;1.20;1.20;;;17.30;99.90;;;;;;5015107;28;20499;-70
2022/08/28 06:18:31;;;;;;;1.80;1.70;;;17.30;99.90;;;;;;5015724;28;20255;-69
2022/08/28 06:21:01;;;;;;;2.00;1.77;;;17.50;99.90;;;;;;5013958;28;20419;-70
2022/08/28 06:23:27;;;;;;;1.90;1.80;;;17.60;99.90;;;;;;5015507;28;20760;-68
2022/08/28 06:25:53;;;;;;;2.57;2.37;;;17.60;99.90;;;;;;5014732;28;20426;-69
2022/08/28 06:28:21;;;;;;;3.10;1.20;;;17.80;99.90;;;;;;5015495;28;20203;-68
2022/08/28 06:30:48;;;;;;;2.30;1.97;;;17.90;99.90;;;;;;5014921;28;20489;-69
2022/08/28 06:33:17;;;;;;;0.90;0.90;;;18.10;99.90;;;;;;5014946;28;20403;-69
2022/08/28 06:35:46;;;;;;;0.97;0.80;;;18.20;99.90;;;;;;5015019;28;20419;-69
2022/08/28 06:38:12;;;;;;;1.10;1.10;;;18.40;99.90;;;;;;5015032;28;20436;-69
2022/08/28 06:40:43;;;;;;;1.77;1.67;;;18.60;99.90;;;;;;5014669;28;20410;-70
2022/08/28 06:43:09;;;;;;;2.00;1.90;;;18.80;99.90;;;;;;5015239;28;20890;-69
2022/08/28 06:45:42;;;;;;;2.50;1.77;;;19.00;99.90;;;;;;5014813;28;20436;-69
2022/08/28 06:48:10;;;;;;;1.03;1.03;;;19.10;99.90;;;;;;5014149;28;20503;-69
2022/08/28 06:50:40;;;;;;;1.53;1.43;;;19.20;99.90;;;;;;5013502;28;20490;-68
2022/08/28 06:53:10;;;;;;;0.80;0.77;;;19.40;99.90;;;;;;5014586;28;20409;-70
2022/08/28 06:55:37;;;;;;;2.27;2.17;;;19.40;99.90;;;;;;5013900;28;20441;-69
2022/08/28 06:58:06;;;;;;;1.37;1.27;;;19.50;99.90;;;;;;5014357;28;20417;-69
2022/08/28 07:00:32;;;;;;;1.10;1.10;;;19.70;99.90;;;;;;5014216;28;20460;-69
2022/08/28 07:02:58;;;;;;;2.03;1.93;;;19.60;99.90;;;;;;5014833;28;20413;-69
2022/08/28 07:05:24;;;;;;;1.43;1.33;;;19.50;99.90;;;;;;5014040;28;20436;-69
2022/08/28 07:07:50;;;;;;;1.10;1.00;;;19.50;99.90;;;;;;5013928;28;20198;-69
2022/08/28 07:10:16;;;;;;;0.70;0.70;;;19.40;99.90;;;;;;5013491;28;20742;-69
2022/08/28 07:12:42;;;;;;;2.70;1.37;;;19.60;99.90;;;;;;5013879;28;20399;-70
2022/08/28 07:15:09;;;;;;;1.70;1.60;;;20.00;99.90;;;;;;5013081;28;20449;-70
2022/08/28 07:17:34;;;;;;;1.70;1.23;;;20.40;99.90;;;;;;5014139;28;20415;-69
2022/08/28 07:20:02;;;;;;;0.93;0.93;;;20.60;99.90;;;;;;5013914;28;20408;-68
2022/08/28 07:22:28;;;;;;;0.70;0.70;;;20.80;99.50;;;;;;5014240;28;20220;-70
2022/08/28 07:24:55;;;;;;;0.70;0.70;;;21.00;99.20;;;;;;5014166;28;20403;-70
2022/08/28 07:27:23;;;;;;;0.70;0.70;;;21.10;99.70;;;;;;5013853;28;20451;-69
2022/08/28 07:29:52;;;;;;;0.60;0.60;;;21.00;99.90;;;;;;5013767;28;20404;-70
2022/08/28 07:32:22;;;;;;;0.70;0.70;;;20.80;99.90;;;;;;5013954;28;20490;-70
2022/08/28 07:34:48;;;;;;;0.60;0.57;;;20.70;99.90;;;;;;5012538;28;20933;-69
2022/08/28 07:37:15;;;;;;;0.50;0.50;;;20.40;99.40;;;;;;5013502;28;20485;-70
2022/08/28 07:39:41;;;;;;;3.60;2.27;;;19.90;99.90;;;;;;5014310;28;20461;-70
2022/08/28 07:42:07;;;;;;;1.50;1.00;;;19.80;99.90;;;;;;5013949;28;20726;-69
2022/08/28 07:44:48;;;;;;;0.70;0.70;;;19.70;99.90;;;;;;5014147;28;20522;-71
2022/08/28 07:47:14;;;;;;;0.90;0.90;;;20.00;99.90;;;;;;5013266;28;20505;-70
2022/08/28 07:49:40;;;;;;;0.50;0.50;;;20.50;99.90;;;;;;5012590;28;20774;-71
2022/08/28 07:52:08;;;;;;;1.90;1.20;;;21.10;99.30;;;;;;5012663;28;20471;-70
2022/08/28 07:54:39;;;;;;;1.13;0.93;;;21.00;98.80;;;;;;5013352;28;20191;-69
2022/08/28 07:57:06;;;;;;;0.70;0.70;;;20.90;99.00;;;;;;5013008;28;20407;-70
2022/08/28 07:59:32;;;;;;;1.20;1.03;;;21.00;99.30;;;;;;5012096;28;20753;-69
2022/08/28 08:01:58;;;;;;;0.70;0.70;;;21.10;99.40;;;;;;5013115;28;20438;-70
2022/08/28 08:04:24;;;;;;;1.03;0.80;;;21.20;98.20;;;;;;5012963;28;20414;-70
2022/08/28 08:06:52;;;;;;;1.07;0.93;;;21.20;98.90;;;;;;5012840;28;20205;-70
2022/08/28 08:09:19;;;;;;;0.87;0.87;;;21.40;99.10;;;;;;5013054;28;20918;-70
2022/08/28 08:11:46;;;;;;;1.13;0.90;;;21.60;98.60;;;;;;5012896;28;20408;-70
2022/08/28 08:14:12;;;;;;;0.80;0.70;;;21.80;98.90;;;;;;5013662;28;20400;-69
2022/08/28 08:16:41;;;;;;;0.80;0.70;;;22.10;98.30;;;;;;5013940;28;20448;-69
2022/08/28 08:19:08;;;;;;;1.70;1.60;;;22.20;97.40;;;;;;5013689;28;20398;-69
2022/08/28 08:21:35;;;;;;;0.80;0.80;;;22.40;96.10;;;;;;5013267;28;20464;-70
2022/08/28 08:24:01;;;;;;;1.33;1.20;;;22.90;97.20;;;;;;5013582;28;20462;-69
2022/08/28 08:26:27;;;;;;;1.40;1.30;;;23.40;95.50;;;;;;5013240;28;20430;-70
2022/08/28 08:28:54;;;;;;;0.87;0.53;;;23.60;93.90;;;;;;5013397;28;20896;-70
2022/08/28 08:31:26;;;;;;;0.93;0.80;;;23.30;94.40;;;;;;5013372;28;20804;-70
2022/08/28 08:33:55;;;;;;;0.80;0.80;;;23.40;95.70;;;;;;5013547;28;20399;-70
2022/08/28 08:36:23;;;;;;;0.97;0.83;;;23.50;94.80;;;;;;5013279;28;20449;-69
2022/08/28 08:38:50;;;;;;;1.10;1.00;;;23.50;94.00;;;;;;5013326;28;20377;-71
2022/08/28 08:41:28;;;;;;;1.43;1.30;;;23.50;93.50;;;;;;5013212;28;20373;-70
2022/08/28 08:44:08;;;;;;;0.80;0.80;;;23.30;93.40;;;;;;5013355;28;20381;-70
2022/08/28 08:46:44;;;;;;;1.03;0.90;;;23.30;94.20;;;;;;5012999;28;20404;-70
2022/08/28 08:49:17;;;;;;;0.83;0.80;;;23.10;93.70;;;;;;5013551;28;20402;-70
2022/08/28 08:51:55;;;;;;;0.50;0.50;;;23.00;93.90;;;;;;5013042;28;20380;-70
2022/08/28 08:54:21;;;;;;;0.90;0.60;;;23.00;92.80;;;;;;5013196;28;20378;-70
2022/08/28 08:56:48;;;;;;;1.83;1.10;;;22.90;93.60;;;;;;5013096;28;20401;-71
2022/08/28 08:59:21;;;;;;;1.27;1.20;;;22.70;94.20;;;;;;5013504;28;20653;-69
2022/08/28 09:01:54;;;;;;;0.60;0.60;;;22.60;94.00;;;;;;5012991;28;20406;-70
2022/08/28 09:04:45;;;;;;;1.13;0.63;;;22.40;94.60;;;;;;5016815;28;20459;-70
2022/08/28 09:07:32;;;;;;;1.20;0.83;;;22.30;95.50;;;;;;5016488;28;20438;-69
2022/08/28 09:09:58;;;;;;;0.60;0.60;;;22.40;95.20;;;;;;5016707;28;20407;-69
2022/08/28 09:12:26;;;;;;;1.17;0.90;;;22.60;94.10;;;;;;5016540;28;20727;-71
2022/08/28 09:15:06;;;;;;;0.50;0.50;;;23.00;94.20;;;;;;5016151;28;20389;-70
2022/08/28 09:17:37;;;;;;;2.10;1.90;;;23.10;94.70;;;;;;5016629;28;20806;-70
2022/08/28 09:20:09;;;;;;;0.50;0.50;;;23.30;94.50;;;;;;5016398;28;20489;-69
2022/08/28 09:22:36;;;;;;;3.83;1.17;;;23.20;94.50;;;;;;5016418;28;20449;-69
2022/08/28 09:25:03;;;;;;;1.00;1.00;;;23.40;94.20;;;;;;5016106;28;20438;-70
2022/08/28 09:27:31;;;;;;;2.00;1.90;;;23.70;94.30;;;;;;5016102;28;20533;-70
2022/08/28 09:30:03;;;;;;;1.67;1.57;;;24.00;92.50;;;;;;5016058;28;20386;-70
2022/08/28 09:32:28;;;;;;;3.87;1.50;;;24.40;91.70;;;;;;5016081;28;20825;-69
2022/08/28 09:35:29;;;;;;;6.93;1.40;;;25.00;92.50;;;;;;5015998;28;20406;-71
2022/08/28 09:38:15;;;;;;;0.50;0.50;;;25.80;90.20;;;;;;5015982;28;20518;-70
2022/08/28 09:43:27;;;;;;;1.33;1.00;;;25.60;90.20;;;;;;5015977;28;20459;-70
2022/08/28 09:46:17;;;;;;;0.70;0.67;;;25.20;90.10;;;;;;5015839;28;20951;-70
2022/08/28 09:48:45;;;;;;;1.53;0.77;;;25.20;90.70;;;;;;5015743;28;20435;-70
2022/08/28 09:51:25;;;;;;;0.97;0.93;;;26.00;88.30;;;;;;5015688;28;20410;-70
2022/08/28 09:53:51;;;;;;;0.60;0.60;;;26.60;86.30;;;;;;5015915;28;20739;-70
2022/08/28 09:56:20;;;;;;;0.80;0.80;;;26.30;81.70;;;;;;5015617;28;20425;-70
2022/08/28 09:58:50;;;;;;;1.00;1.00;;;25.50;84.60;;;;;;5016228;28;20538;-70
2022/08/28 10:01:37;;;;;;;0.70;0.70;;;24.90;89.30;;;;;;5015540;28;20465;-71
2022/08/28 10:04:24;;;;;;;0.73;0.73;;;25.60;92.60;;;;;;5015467;28;20402;-70
2022/08/28 10:07:07;;;;;;;1.23;1.13;;;27.30;87.10;;;;;;5015375;28;20414;-71
2022/08/28 10:09:48;;;;;;;1.17;1.03;;;28.90;82.60;;;;;;5015437;28;20398;-70
2022/08/28 10:12:38;;;;;;;0.80;0.80;;;29.30;74.60;;;;;;5015352;28;20568;-70
2022/08/28 10:15:06;;;;;;;0.90;0.70;;;28.40;75.20;;;;;;5014900;28;20530;-70
2022/08/28 10:17:50;;;;;;;1.00;0.90;;;27.30;77.70;;;;;;5015361;28;20434;-71
2022/08/28 10:20:22;;;;;;;2.53;0.97;;;26.30;80.40;;;;;;5015199;28;20402;-70
2022/08/28 10:23:26;;;;;;;0.80;0.80;;;25.60;82.00;;;;;;5015382;28;20891;-70
2022/08/28 10:26:36;;;;;;;0.87;0.77;;;25.60;87.40;;;;;;5015269;28;20922;-70
2022/08/28 10:29:26;;;;;;;0.93;0.93;;;26.50;82.30;;;;;;5015281;28;20411;-71
2022/08/28 10:32:41;;;;;;;1.27;1.17;;;27.30;83.40;;;;;;5014954;28;20542;-70
2022/08/28 10:35:12;;;;;;;1.13;0.90;;;27.50;81.70;;;;;;4997906;28;20958;-70
2022/08/28 10:38:04;;;;;;;0.90;0.90;;;27.70;79.30;;;;;;5014873;28;20501;-70
2022/08/28 10:40:38;;;;;;;1.03;0.93;;;27.50;78.00;;;;;;5014867;28;20393;-71
2022/08/28 10:43:25;;;;;;;1.00;0.70;;;26.60;79.70;;;;;;5014922;28;20408;-70
2022/08/28 10:45:51;;;;;;;2.00;0.60;;;26.00;80.80;;;;;;5014284;28;20969;-70
2022/08/28 10:48:17;;;;;;;0.70;0.60;;;25.80;80.80;;;;;;5014839;28;20440;-70
2022/08/28 10:50:53;;;;;;;0.93;0.90;;;25.80;82.30;;;;;;5014390;28;20604;-70
2022/08/28 10:53:25;;;;;;;1.50;0.90;;;25.80;83.00;;;;;;5014864;28;20171;-70
2022/08/28 10:56:02;;;;;;;1.17;0.80;;;25.70;87.90;;;;;;5014543;28;20483;-70
2022/08/28 10:58:31;;;;;;;0.80;0.73;;;25.70;84.90;;;;;;5014772;28;20409;-70
2022/08/28 11:01:02;;;;;;;0.70;0.70;;;25.70;83.60;;;;;;5014292;28;20419;-70
2022/08/28 11:03:30;;;;;;;1.00;1.00;;;25.30;82.00;;;;;;5014603;28;20771;-70
2022/08/28 11:06:27;;;;;;;0.70;0.70;;;25.20;84.80;;;;;;5014493;28;20513;-71
2022/08/28 11:08:57;;;;;;;0.90;0.90;;;25.20;84.00;;;;;;5010533;28;20486;-70
2022/08/28 11:11:44;;;;;;;1.10;1.03;;;25.20;81.40;;;;;;5014218;28;20418;-70
2022/08/28 11:14:37;;;;;;;0.60;0.60;;;25.10;82.80;;;;;;5014284;28;20425;-70
2022/08/28 11:17:06;;;;;;;0.60;0.60;;;25.20;84.70;;;;;;5014314;28;20477;-70
2022/08/28 11:19:49;;;;;;;0.77;0.77;;;25.30;84.60;;;;;;5014330;28;20497;-70
2022/08/28 11:22:41;;;;;;;0.60;0.60;;;25.00;84.20;;;;;;5014304;28;20373;-69
2022/08/28 11:25:19;;;;;;;0.57;0.57;;;24.40;83.10;;;;;;5002706;28;20801;-70
2022/08/28 11:28:38;;;;;;;0.60;0.60;;;23.90;85.30;;;;;;5013953;28;20812;-70
2022/08/28 11:31:04;;;;;;;1.77;0.83;;;24.00;88.00;;;;;;5013685;28;20385;-70
2022/08/28 11:33:32;;;;;;;1.43;0.93;;;24.30;87.70;;;;;;5014217;28;20474;-70
2022/08/28 11:35:58;;;;;;;0.70;0.70;;;24.40;87.00;;;;;;5013837;28;20267;-70
2022/08/28 11:38:42;;;;;;;0.60;0.60;;;24.40;84.10;;;;;;5014103;28;20959;-69
2022/08/28 11:41:16;;;;;;;1.47;1.00;;;24.80;85.50;;;;;;5013715;28;20171;-70
2022/08/28 11:43:43;;;;;;;0.80;0.70;;;25.00;83.70;;;;;;5014059;28;20418;-69
2022/08/28 11:46:25;;;;;;;2.33;0.90;;;25.40;82.40;;;;;;5014121;28;20426;-70
2022/08/28 11:48:56;;;;;;;1.17;1.13;;;25.80;82.10;;;;;;5013827;28;20431;-71
2022/08/28 11:51:46;;;;;;;0.70;0.70;;;25.80;82.60;;;;;;5013657;28;20410;-70
2022/08/28 11:54:38;;;;;;;1.40;0.67;;;25.80;79.80;;;;;;5013942;28;20468;-70
2022/08/28 11:57:09;;;;;;;0.80;0.80;;;25.80;81.10;;;;;;5013759;28;20422;-70
2022/08/28 11:59:46;;;;;;;1.03;0.83;;;25.60;81.30;;;;;;5013649;28;20410;-70
2022/08/28 12:02:37;;;;;;;1.07;1.03;;;25.40;81.90;;;;;;5014323;28;20394;-70
2022/08/28 12:05:25;;;;;;;1.03;0.90;;;25.50;81.80;;;;;;5013802;28;20484;-70
2022/08/28 12:07:50;;;;;;;0.77;0.77;;;25.70;81.50;;;;;;4999568;28;20474;-70
2022/08/28 12:10:19;;;;;;;0.57;0.57;;;25.60;83.10;;;;;;5013627;28;20418;-70
2022/08/28 12:12:44;;;;;;;0.80;0.80;;;25.30;82.80;;;;;;5013460;28;20433;-70
2022/08/28 12:15:30;;;;;;;0.70;0.70;;;24.80;82.70;;;;;;5013513;28;20421;-70
2022/08/28 12:17:59;;;;;;;0.87;0.83;;;24.60;84.10;;;;;;5013436;28;20205;-70
2022/08/28 12:20:30;;;;;;;0.60;0.60;;;24.40;86.90;;;;;;5013362;28;20779;-71
2022/08/28 12:23:22;;;;;;;0.80;0.73;;;24.10;90.70;;;;;;5013637;28;20388;-70
2022/08/28 12:25:48;;;;;;;0.63;0.63;;;23.60;91.40;;;;;;5002942;28;20446;-70
2022/08/28 12:28:21;;;;;;;0.73;0.73;;;23.20;93.40;;;;;;5013388;28;20429;-70
2022/08/28 12:34:42;;;;;;;1.10;0.70;;;23.10;92.20;;;;;;4997626;28;20381;-70
2022/08/28 12:37:31;;;;;;;1.33;0.87;;;23.70;90.60;;;;;;5015460;28;20368;-70
2022/08/28 12:40:40;;;;;;;0.50;0.50;;;24.20;89.40;;;;;;5006521;28;20433;-71
2022/08/28 12:43:09;;;;;;;0.50;0.40;;;24.60;92.30;;;;;;5017122;28;20894;-69
2022/08/28 12:45:56;;;;;;;1.37;1.00;;;24.60;90.90;;;;;;5016973;28;20886;-70
2022/08/28 12:48:32;;;;;;;0.93;0.93;;;24.70;88.40;;;;;;5017113;28;20424;-70
2022/08/28 12:51:07;;;;;;;0.50;0.47;;;25.00;84.90;;;;;;5017073;28;20406;-70
2022/08/28 12:53:42;;;;;;;0.50;0.50;;;25.10;84.60;;;;;;5016896;28;20465;-70
2022/08/28 12:56:10;;;;;;;0.87;0.80;;;25.10;86.40;;;;;;5016768;28;20429;-69
2022/08/28 12:58:38;;;;;;;1.00;0.83;;;24.90;83.90;;;;;;5016859;28;20908;-70
2022/08/28 13:01:19;;;;;;;0.60;0.60;;;24.60;84.80;;;;;;5016645;28;20421;-70
2022/08/28 13:03:49;;;;;;;0.50;0.50;;;24.40;87.50;;;;;;5016715;28;20381;-70
2022/08/28 13:06:25;;;;;;;1.00;0.63;;;24.20;90.90;;;;;;5016606;28;20405;-70
2022/08/28 13:08:56;;;;;;;0.80;0.80;;;23.70;92.00;;;;;;5016470;28;20423;-70
2022/08/28 13:11:22;;;;;;;0.70;0.60;;;23.50;91.20;;;;;;5016426;28;20406;-70
2022/08/28 13:13:49;;;;;;;0.60;0.60;;;23.40;90.90;;;;;;5016674;28;20983;-70